Welcome to Northern Hawkes Bay. New Zealand.
PWS Header
      nz Flag



Hit Counter


W3C Valid W3C Valid logo


    Wairoa

Select any of the Stations below to visit their websites.










Historic Data from Weather Underground
Select the location of interest below. Wairoa is the default. Please have patience, this Data is slow to load in.
Northern Hawkes Bay Historical Data
Daily Summary for April 16, 2017 Units:  Metric    English   Both
« Previous Day
Next Day »
Daily Weekly Monthly Yearly Custom
  High: Low: Average:
Temperature: 27.1 °C 9.7 °C 16.3 °C
Dew Point: 14.3 °C 9.6 °C 11.9 °C
Humidity: 99% 36% 79%
Wind Speed: 12.2km/h 0.0km/h 2.5km/h
Wind Gust: 21.9km/h - -
Wind- - SSW
Pressure: 1012.8 hPa 1009.4 hPa -
Precipitation: 2.3 mm    
Historical Graphs
 
 
Tabular Data for April 16, 2017
Time Temperature Dew Point Pressure Wind Wind Speed Wind Gust Humidity Rainfall Rate (Hourly) solar
00:02 14.1 °C 11.6 °C 1009.4 hPa Calm   6.1 km/h 85% 0.0 mm 0 W/m2
00:08 14.1 °C 11.6 °C 1009.4 hPa Calm   6.1 km/h 85% 0.0 mm 0 W/m2
00:13 13.9 °C 11.6 °C 1009.4 hPa Calm     86% 0.0 mm 0 W/m2
00:18 13.8 °C 11.5 °C 1009.4 hPa Calm     86% 0.0 mm 0 W/m2
00:23 13.7 °C 11.6 °C 1009.4 hPa Calm     87% 0.0 mm 0 W/m2
00:28 13.5 °C 11.4 °C 1009.4 hPa Calm     87% 0.0 mm 0 W/m2
00:33 13.2 °C 11.1 °C 1009.7 hPa Calm     87% 0.0 mm 0 W/m2
00:38 13.1 °C 11.0 °C 1009.7 hPa Calm     87% 0.0 mm 0 W/m2
00:43 13.1 °C 11.2 °C 1009.7 hPa Calm     88% 0.0 mm 0 W/m2
00:48 13.1 °C 11.3 °C 1009.7 hPa Calm     89% 0.0 mm 0 W/m2
00:53 12.7 °C 10.9 °C 1009.7 hPa Calm     89% 0.0 mm 0 W/m2
00:58 12.5 °C 10.9 °C 1009.7 hPa Calm     90% 0.0 mm 0 W/m2
01:03 12.3 °C 10.9 °C 1009.7 hPa Calm     91% 0.0 mm 0 W/m2
01:08 12.2 °C 10.9 °C 1009.7 hPa Calm     92% 0.0 mm 0 W/m2
01:13 12.2 °C 10.9 °C 1009.7 hPa Calm   7.2 km/h 92% 0.0 mm 0 W/m2
01:18 12.1 °C 11.0 °C 1009.7 hPa NNW 3.5 km/h 7.2 km/h 93% 0.0 mm 0 W/m2
01:23 12.0 °C 10.9 °C 1009.7 hPa Calm   7.2 km/h 93% 0.0 mm 0 W/m2
01:28 11.9 °C 11.1 °C 1009.7 hPa Calm   7.2 km/h 95% 0.0 mm 0 W/m2
01:33 11.8 °C 11.1 °C 1010.0 hPa Calm     95% 0.0 mm 0 W/m2
01:38 11.8 °C 11.1 °C 1009.7 hPa Calm     95% 0.0 mm 0 W/m2
01:43 11.7 °C 11.1 °C 1009.7 hPa Calm     96% 0.0 mm 0 W/m2
01:48 11.6 °C 11.0 °C 1009.7 hPa Calm     96% 0.0 mm 0 W/m2
01:53 11.5 °C 10.9 °C 1009.7 hPa Calm     96% 0.0 mm 0 W/m2
01:58 11.3 °C 10.7 °C 1009.7 hPa Calm     96% 0.0 mm 0 W/m2
02:03 11.2 °C 10.6 °C 1009.7 hPa Calm     96% 0.0 mm 0 W/m2
02:08 11.2 °C 10.7 °C 1009.7 hPa Calm     97% 0.0 mm 0 W/m2
02:13 11.2 °C 10.7 °C 1009.7 hPa Calm     97% 0.0 mm 0 W/m2
02:18 11.0 °C 10.6 °C 1009.7 hPa Calm     97% 0.0 mm 0 W/m2
02:23 11.1 °C 10.7 °C 1010.0 hPa Calm     97% 0.0 mm 0 W/m2
02:28 11.3 °C 10.8 °C 1009.7 hPa Calm     97% 0.0 mm 0 W/m2
02:33 11.4 °C 10.9 °C 1009.4 hPa Calm     97% 0.0 mm 0 W/m2
02:38 11.4 °C 11.1 °C 1009.7 hPa Calm     98% 0.0 mm 0 W/m2
02:43 11.2 °C 10.9 °C 1009.7 hPa Calm     98% 0.0 mm 0 W/m2
02:48 11.0 °C 10.7 °C 1009.7 hPa Calm     98% 0.0 mm 0 W/m2
02:53 11.0 °C 10.6 °C 1009.7 hPa Calm     97% 0.0 mm 0 W/m2
02:58 10.8 °C 10.5 °C 1009.7 hPa Calm     98% 0.0 mm 0 W/m2
03:04 10.7 °C 10.4 °C 1009.7 hPa Calm     98% 0.0 mm 0 W/m2
03:09 10.7 °C 10.4 °C 1009.4 hPa Calm     98% 0.0 mm 0 W/m2
03:14 10.7 °C 10.4 °C 1009.7 hPa Calm     98% 0.0 mm 0 W/m2
03:19 10.7 °C 10.4 °C 1009.7 hPa Calm     98% 0.0 mm 0 W/m2
03:24 10.6 °C 10.3 °C 1009.4 hPa Calm     98% 0.0 mm 0 W/m2
03:29 10.7 °C 10.6 °C 1009.7 hPa Calm     99% 0.0 mm 0 W/m2
03:34 10.7 °C 10.6 °C 1009.7 hPa Calm     99% 0.0 mm 0 W/m2
03:39 10.5 °C 10.3 °C 1009.7 hPa Calm     99% 0.0 mm 0 W/m2
03:44 10.4 °C 10.3 °C 1009.7 hPa Calm     99% 0.0 mm 0 W/m2
03:49 10.3 °C 10.0 °C 1009.7 hPa Calm     98% 0.0 mm 0 W/m2
03:54 10.3 °C 10.2 °C 1009.7 hPa Calm     99% 0.0 mm 0 W/m2
03:59 10.4 °C 10.3 °C 1009.7 hPa Calm     99% 0.0 mm 0 W/m2
04:04 10.5 °C 10.3 °C 1009.7 hPa Calm     99% 0.0 mm 0 W/m2
04:09 10.4 °C 10.3 °C 1009.7 hPa Calm     99% 0.0 mm 0 W/m2
04:14 10.3 °C 10.2 °C 1010.0 hPa North 3.5 km/h 5.0 km/h 99% 0.0 mm 0 W/m2
04:19 10.3 °C 10.2 °C 1010.0 hPa Calm   5.0 km/h 99% 0.0 mm 0 W/m2
04:24 10.2 °C 10.1 °C 1010.0 hPa Calm   5.0 km/h 99% 0.0 mm 0 W/m2
04:29 10.2 °C 10.1 °C 1010.0 hPa Calm     99% 0.0 mm 0 W/m2
04:34 10.2 °C 10.1 °C 1010.0 hPa Calm     99% 0.0 mm 0 W/m2
04:39 10.3 °C 10.2 °C 1010.0 hPa Calm     99% 0.0 mm 0 W/m2
04:44 10.3 °C 10.2 °C 1010.0 hPa Calm     99% 0.0 mm 0 W/m2
04:49 10.3 °C 10.2 °C 1010.0 hPa Calm     99% 0.0 mm 0 W/m2
04:54 10.3 °C 10.2 °C 1010.0 hPa Calm     99% 0.0 mm 0 W/m2
04:59 10.3 °C 10.2 °C 1010.4 hPa Calm     99% 0.0 mm 0 W/m2
05:04 10.2 °C 10.1 °C 1010.0 hPa Calm     99% 0.0 mm 0 W/m2
05:09 10.2 °C 10.1 °C 1010.0 hPa Calm     99% 0.0 mm 0 W/m2
05:14 10.2 °C 10.1 °C 1010.0 hPa Calm     99% 0.0 mm 0 W/m2
05:19 10.2 °C 10.1 °C 1010.4 hPa Calm     99% 0.0 mm 0 W/m2
05:24 10.1 °C 9.9 °C 1010.4 hPa Calm     99% 0.0 mm 0 W/m2
05:29 10.0 °C 9.8 °C 1010.4 hPa Calm     99% 0.0 mm 0 W/m2
05:34 9.8 °C 9.7 °C 1010.4 hPa Calm     99% 0.0 mm 0 W/m2
05:39 9.7 °C 9.6 °C 1010.4 hPa Calm     99% 0.0 mm 0 W/m2
05:44 9.8 °C 9.7 °C 1010.4 hPa Calm     99% 0.0 mm 0 W/m2
05:49 9.8 °C 9.7 °C 1010.4 hPa Calm     99% 0.0 mm 0 W/m2
05:54 9.8 °C 9.7 °C 1010.4 hPa Calm     99% 0.0 mm 0 W/m2
05:59 9.8 °C 9.7 °C 1010.7 hPa Calm     99% 0.0 mm 0 W/m2
06:04 9.8 °C 9.7 °C 1010.4 hPa Calm     99% 0.0 mm 0 W/m2
06:09 9.9 °C 9.8 °C 1010.4 hPa Calm     99% 0.0 mm 0 W/m2
06:14 9.9 °C 9.8 °C 1010.4 hPa Calm     99% 0.0 mm 0 W/m2
06:19 9.9 °C 9.8 °C 1010.0 hPa Calm     99% 0.0 mm 0 W/m2
06:24 9.8 °C 9.7 °C 1010.4 hPa Calm     99% 0.0 mm 0 W/m2
06:29 9.8 °C 9.7 °C 1010.4 hPa Calm     99% 0.0 mm 0 W/m2
06:34 9.8 °C 9.7 °C 1010.4 hPa Calm     99% 0.0 mm 0 W/m2
06:39 9.8 °C 9.7 °C 1010.7 hPa Calm     99% 0.0 mm 0 W/m2
06:44 10.0 °C 9.8 °C 1010.7 hPa Calm     99% 0.0 mm 8 W/m2
06:49 9.9 °C 9.8 °C 1010.7 hPa Calm     99% 0.0 mm 12 W/m2
06:54 10.0 °C 9.8 °C 1010.4 hPa Calm     99% 0.0 mm 15 W/m2
06:59 10.1 °C 9.9 °C 1010.7 hPa Calm     99% 0.0 mm 19 W/m2
07:04 10.2 °C 10.1 °C 1010.7 hPa Calm     99% 0.0 mm 39 W/m2
07:09 10.5 °C 10.3 °C 1010.7 hPa Calm     99% 0.0 mm 81 W/m2
07:14 11.0 °C 10.7 °C 1010.7 hPa Calm     98% 0.0 mm 101 W/m2
07:19 11.5 °C 11.2 °C 1010.7 hPa Calm     98% 0.0 mm 119 W/m2
07:24 12.2 °C 11.7 °C 1010.7 hPa Calm     97% 0.0 mm 135 W/m2
07:29 13.2 °C 13.1 °C 1010.7 hPa Calm     99% 0.0 mm 151 W/m2
07:34 13.6 °C 13.4 °C 1011.1 hPa Calm     99% 0.0 mm 173 W/m2
07:39 13.8 °C 13.5 °C 1011.1 hPa Calm     98% 0.0 mm 199 W/m2
07:44 14.1 °C 13.0 °C 1011.1 hPa Calm     93% 0.0 mm 213 W/m2
07:49 15.1 °C 13.3 °C 1011.1 hPa Calm     89% 0.0 mm 241 W/m2
07:54 15.9 °C 12.8 °C 1011.1 hPa Calm     82% 0.0 mm 236 W/m2
07:59 15.8 °C 11.8 °C 1011.1 hPa Calm     77% 0.0 mm 231 W/m2
08:04 16.1 °C 11.9 °C 1011.1 hPa Calm     76% 0.0 mm 212 W/m2
08:09 15.9 °C 11.9 °C 1011.1 hPa Calm     77% 0.0 mm 218 W/m2
08:14 15.9 °C 12.1 °C 1011.4 hPa Calm   3.5 km/h 78% 0.0 mm 218 W/m2
08:19 16.1 °C 12.4 °C 1011.4 hPa Calm   3.5 km/h 79% 0.0 mm 252 W/m2
08:39 17.2 °C 12.7 °C 1011.7 hPa Calm     75% 0.0 mm 181 W/m2
08:44 17.5 °C 13.1 °C 1011.4 hPa Calm     75% 0.0 mm 188 W/m2
08:49 17.8 °C 13.1 °C 1011.4 hPa Calm     74% 0.0 mm 194 W/m2
08:54 17.3 °C 12.4 °C 1011.4 hPa Calm   5.0 km/h 73% 0.0 mm 158 W/m2
08:59 17.3 °C 12.6 °C 1011.4 hPa Calm   5.0 km/h 74% 0.0 mm 328 W/m2
09:04 18.6 °C 14.3 °C 1011.7 hPa Calm     76% 0.0 mm 344 W/m2
09:09 20.1 °C 13.8 °C 1011.4 hPa Calm     67% 0.0 mm 376 W/m2
09:14 20.6 °C 13.6 °C 1011.4 hPa Calm     64% 0.0 mm 389 W/m2
09:19 21.1 °C 13.6 °C 1011.4 hPa Calm     62% 0.0 mm 406 W/m2
09:24 21.6 °C 13.8 °C 1011.4 hPa Calm     61% 0.0 mm 410 W/m2
09:29 21.6 °C 13.3 °C 1011.4 hPa Calm     59% 0.0 mm 391 W/m2
09:34 22.3 °C 13.4 °C 1011.4 hPa Calm     57% 0.0 mm 158 W/m2
09:39 22.4 °C 12.4 °C 1011.7 hPa North 6.1 km/h 11.1 km/h 53% 0.0 mm 99 W/m2
09:44 21.5 °C 11.6 °C 1011.4 hPa North 1.1 km/h 11.1 km/h 53% 0.0 mm 96 W/m2
09:49 21.0 °C 11.9 °C 1011.7 hPa North 6.1 km/h 12.2 km/h 56% 0.0 mm 106 W/m2
09:54 21.0 °C 11.6 °C 1011.7 hPa North 6.1 km/h 12.2 km/h 55% 0.0 mm 110 W/m2
09:59 20.9 °C 11.8 °C 1011.7 hPa North 5.0 km/h 11.1 km/h 56% 0.0 mm 92 W/m2
10:04 21.6 °C 12.2 °C 1011.7 hPa North 5.0 km/h 11.1 km/h 55% 0.0 mm 108 W/m2
10:09 22.0 °C 12.0 °C 1011.7 hPa NNE 5.0 km/h 9.7 km/h 53% 0.0 mm 117 W/m2
10:14 22.1 °C 11.8 °C 1011.7 hPa NE 2.6 km/h 9.7 km/h 52% 0.0 mm 136 W/m2
10:19 21.9 °C 11.9 °C 1011.7 hPa NNE 6.1 km/h 9.7 km/h 53% 0.0 mm 105 W/m2
10:24 22.2 °C 11.6 °C 1011.7 hPa Calm   9.7 km/h 51% 0.0 mm 138 W/m2
10:29 22.6 °C 11.9 °C 1011.7 hPa North 3.5 km/h 9.7 km/h 51% 0.0 mm 160 W/m2
10:34 22.3 °C 11.7 °C 1011.7 hPa North 2.6 km/h 12.2 km/h 51% 0.0 mm 322 W/m2
10:39 22.3 °C 11.7 °C 1011.7 hPa North 5.0 km/h 12.2 km/h 51% 0.0 mm 490 W/m2
10:44 22.6 °C 11.9 °C 1011.7 hPa North 3.5 km/h 12.2 km/h 51% 0.0 mm 221 W/m2
10:49 21.9 °C 11.6 °C 1011.7 hPa NNE 7.2 km/h 13.4 km/h 52% 0.0 mm 342 W/m2
10:54 21.2 °C 11.3 °C 1011.7 hPa NE 9.7 km/h 14.8 km/h 53% 0.0 mm 335 W/m2
10:59 21.2 °C 11.8 °C 1011.4 hPa ENE 3.5 km/h 14.8 km/h 55% 0.0 mm 509 W/m2
11:04 22.0 °C 12.0 °C 1011.4 hPa ENE 6.1 km/h 14.8 km/h 53% 0.0 mm 523 W/m2
11:09 22.0 °C 11.4 °C 1011.7 hPa NE 7.2 km/h 13.4 km/h 51% 0.0 mm 564 W/m2
11:14 21.9 °C 11.9 °C 1011.7 hPa NNE 8.7 km/h 18.3 km/h 53% 0.0 mm 381 W/m2
11:19 21.9 °C 11.9 °C 1011.4 hPa Calm   18.3 km/h 53% 0.0 mm 522 W/m2
11:24 22.8 °C 12.4 °C 1011.7 hPa NNE 11.1 km/h 17.2 km/h 52% 0.0 mm 542 W/m2
11:29 22.3 °C 11.7 °C 1011.4 hPa NNE 9.7 km/h 17.2 km/h 51% 0.0 mm 535 W/m2
11:34 22.4 °C 12.1 °C 1011.4 hPa NNE 6.1 km/h 17.2 km/h 52% 0.0 mm 516 W/m2
11:39 22.3 °C 11.7 °C 1011.4 hPa NNE 1.1 km/h 17.2 km/h 51% 0.0 mm 508 W/m2
11:44 22.6 °C 11.9 °C 1011.4 hPa North 6.1 km/h 14.8 km/h 51% 0.0 mm 504 W/m2
11:49 22.8 °C 12.2 °C 1011.7 hPa NNE 5.0 km/h 14.8 km/h 51% 0.0 mm 509 W/m2
11:54 22.5 °C 11.9 °C 1011.4 hPa North 2.6 km/h 12.2 km/h 51% 0.0 mm 528 W/m2
11:59 22.5 °C 11.9 °C 1011.4 hPa North 7.2 km/h 14.8 km/h 51% 0.0 mm 549 W/m2
12:04 22.7 °C 11.8 °C 1011.4 hPa NNE 7.2 km/h 14.8 km/h 50% 0.0 mm 534 W/m2
12:09 23.1 °C 11.8 °C 1011.4 hPa NNE 5.0 km/h 12.2 km/h 49% 0.0 mm 538 W/m2
12:14 23.0 °C 11.4 °C 1011.4 hPa NNE 3.5 km/h 14.8 km/h 48% 0.0 mm 295 W/m2
12:19 23.1 °C 11.5 °C 1011.4 hPa NNE 2.6 km/h 14.8 km/h 48% 0.0 mm 550 W/m2
12:24 23.4 °C 11.4 °C 1011.1 hPa NNE 5.0 km/h 13.4 km/h 47% 0.0 mm 467 W/m2
12:29 23.6 °C 12.3 °C 1011.1 hPa NE 5.0 km/h 11.1 km/h 49% 0.0 mm 517 W/m2
12:34 24.0 °C 11.7 °C 1010.7 hPa NE 7.2 km/h 12.2 km/h 46% 0.0 mm 508 W/m2
12:39 23.8 °C 11.8 °C 1010.7 hPa NNE 7.2 km/h 12.2 km/h 47% 0.0 mm 527 W/m2
12:44 23.6 °C 11.7 °C 1010.7 hPa North 3.5 km/h 15.8 km/h 47% 0.0 mm 508 W/m2
12:49 24.4 °C 12.1 °C 1010.7 hPa North 5.0 km/h 15.8 km/h 46% 0.0 mm 486 W/m2
12:54 23.8 °C 11.5 °C 1010.7 hPa North 12.2 km/h 21.9 km/h 46% 0.0 mm 514 W/m2
12:59 23.2 °C 11.3 °C 1010.7 hPa North 8.7 km/h 21.9 km/h 47% 0.0 mm 199 W/m2
13:04 22.7 °C 9.8 °C 1010.7 hPa North 7.2 km/h 21.9 km/h 44% 0.0 mm 286 W/m2
13:09 23.0 °C 11.1 °C 1010.4 hPa North 9.7 km/h 17.2 km/h 47% 0.0 mm 516 W/m2
13:14 23.4 °C 11.1 °C 1010.4 hPa NNW 6.1 km/h 17.2 km/h 46% 0.0 mm 204 W/m2
13:19 24.2 °C 11.6 °C 1010.4 hPa NNW 3.5 km/h 15.8 km/h 45% 0.0 mm 177 W/m2
13:24 24.3 °C 11.3 °C 1010.4 hPa NNW 9.7 km/h 17.2 km/h 44% 0.0 mm 330 W/m2
13:29 23.9 °C 11.6 °C 1010.4 hPa North 2.6 km/h 17.2 km/h 46% 0.0 mm 287 W/m2
13:34 23.9 °C 11.3 °C 1010.4 hPa North 12.2 km/h 17.2 km/h 45% 0.0 mm 420 W/m2
13:39 23.8 °C 11.5 °C 1010.4 hPa NNW 8.7 km/h 17.2 km/h 46% 0.0 mm 200 W/m2
13:44 23.9 °C 11.3 °C 1010.4 hPa North 7.2 km/h 17.2 km/h 45% 0.0 mm 420 W/m2
13:49 24.0 °C 11.3 °C 1010.4 hPa North 8.7 km/h 17.2 km/h 45% 0.0 mm 364 W/m2
13:54 24.1 °C 11.4 °C 1010.4 hPa NNW 8.7 km/h 15.8 km/h 45% 0.0 mm 392 W/m2
13:59 24.1 °C 11.4 °C 1010.4 hPa NW 3.5 km/h 13.4 km/h 45% 0.0 mm 338 W/m2
14:04 24.3 °C 11.3 °C 1010.4 hPa NW 6.1 km/h 13.4 km/h 44% 0.0 mm 376 W/m2
14:09 24.2 °C 11.2 °C 1010.0 hPa NW 6.1 km/h 12.2 km/h 44% 0.0 mm 103 W/m2
14:14 23.4 °C 11.1 °C 1010.4 hPa NNW 2.6 km/h 12.2 km/h 46% 0.0 mm 123 W/m2
14:19 22.8 °C 10.6 °C 1010.4 hPa North 3.5 km/h 12.2 km/h 46% 0.0 mm 149 W/m2
14:24 23.8 °C 11.8 °C 1010.0 hPa Calm   12.2 km/h 47% 0.0 mm 156 W/m2
14:29 25.8 °C 12.3 °C 1010.4 hPa Calm   5.0 km/h 43% 0.0 mm 165 W/m2
14:34 27.1 °C 11.6 °C 1010.4 hPa NW 1.1 km/h 6.1 km/h 38% 0.0 mm 128 W/m2
14:39 26.7 °C 11.2 °C 1010.0 hPa NNW 2.6 km/h 7.2 km/h 38% 0.0 mm 95 W/m2
14:44 27.0 °C 10.7 °C 1010.0 hPa North 3.5 km/h 7.2 km/h 36% 0.0 mm 114 W/m2
14:49 25.3 °C 10.7 °C 1010.0 hPa Calm   9.7 km/h 40% 0.0 mm 121 W/m2
14:54 24.3 °C 11.3 °C 1010.4 hPa North 1.1 km/h 9.7 km/h 44% 0.0 mm 151 W/m2
14:59 25.5 °C 12.4 °C 1010.4 hPa NNE 2.6 km/h 8.7 km/h 44% 0.0 mm 209 W/m2
15:04 25.5 °C 11.3 °C 1010.4 hPa NE 2.6 km/h 11.1 km/h 41% 0.0 mm 148 W/m2
15:09 23.9 °C 11.3 °C 1010.0 hPa NE 3.5 km/h 13.4 km/h 45% 0.0 mm 103 W/m2
15:14 22.9 °C 11.0 °C 1010.4 hPa NNE 3.5 km/h 13.4 km/h 47% 0.0 mm 117 W/m2
15:19 22.6 °C 11.3 °C 1010.0 hPa North 5.0 km/h 7.2 km/h 49% 0.0 mm 109 W/m2
15:24 22.3 °C 11.4 °C 1010.0 hPa North 2.6 km/h 8.7 km/h 50% 0.0 mm 91 W/m2
15:29 22.0 °C 11.4 °C 1010.4 hPa North 5.0 km/h 8.7 km/h 51% 0.0 mm 85 W/m2
15:34 21.8 °C 11.8 °C 1010.0 hPa NNE 6.1 km/h 9.7 km/h 53% 0.0 mm 94 W/m2
15:39 21.8 °C 12.4 °C 1010.0 hPa NNE 2.6 km/h 9.7 km/h 55% 0.0 mm 117 W/m2
15:44 21.7 °C 12.6 °C 1010.0 hPa NE 1.1 km/h 8.7 km/h 56% 0.0 mm 86 W/m2
15:49 21.5 °C 12.6 °C 1010.4 hPa NNE 5.0 km/h 8.7 km/h 57% 0.0 mm 58 W/m2
15:54 21.2 °C 12.6 °C 1010.4 hPa North 5.0 km/h 9.7 km/h 58% 0.0 mm 65 W/m2
15:59 21.0 °C 13.2 °C 1010.4 hPa Calm   12.2 km/h 61% 0.0 mm 64 W/m2
16:05 20.7 °C 13.4 °C 1010.0 hPa North 5.0 km/h 12.2 km/h 63% 0.0 mm 92 W/m2
16:10 21.6 °C 14.0 °C 1010.4 hPa North 2.6 km/h 11.1 km/h 62% 0.0 mm 149 W/m2
16:15 22.4 °C 14.0 °C 1010.4 hPa North 8.7 km/h 11.1 km/h 59% 0.0 mm 171 W/m2
16:20 22.4 °C 13.7 °C 1010.4 hPa North 7.2 km/h 13.4 km/h 58% 0.0 mm 161 W/m2
16:25 21.8 °C 13.2 °C 1010.4 hPa NNW 9.7 km/h 15.8 km/h 58% 0.0 mm 96 W/m2
16:30 20.7 °C 13.4 °C 1010.4 hPa North 6.1 km/h 15.8 km/h 63% 0.0 mm 50 W/m2
16:36 20.0 °C 13.2 °C 1010.0 hPa NNE 8.7 km/h 18.3 km/h 65% 0.0 mm 30 W/m2
16:41 19.6 °C 13.3 °C 1010.4 hPa North 6.1 km/h 18.3 km/h 67% 0.0 mm 25 W/m2
16:46 19.2 °C 12.9 °C 1010.4 hPa NNW 3.5 km/h 11.1 km/h 67% 0.0 mm 20 W/m2
16:51 19.0 °C 13.2 °C 1010.4 hPa NNW 7.2 km/h 11.1 km/h 69% 0.0 mm 16 W/m2
16:56 18.7 °C 13.3 °C 1010.4 hPa NNW 5.0 km/h 9.7 km/h 71% 0.0 mm 14 W/m2
17:01 18.5 °C 13.4 °C 1010.4 hPa NNW 2.6 km/h 9.7 km/h 72% 0.0 mm 13 W/m2
17:06 18.3 °C 13.4 °C 1010.4 hPa NNW 6.1 km/h 9.7 km/h 73% 0.0 mm 12 W/m2
17:11 18.2 °C 13.3 °C 1010.7 hPa NNW 5.0 km/h 9.7 km/h 73% 0.0 mm 10 W/m2
17:15 18.0 °C 13.3 °C 1010.7 hPa NNW 3.5 km/h 9.7 km/h 74% 0.0 mm 8 W/m2
17:20 17.9 °C 13.2 °C 1010.7 hPa Calm   8.7 km/h 74% 0.0 mm 6 W/m2
17:25 17.8 °C 13.1 °C 1010.7 hPa Calm   6.1 km/h 74% 0.0 mm 5 W/m2
17:30 17.6 °C 13.1 °C 1010.7 hPa WNW 5.0 km/h 6.1 km/h 75% 0.0 mm 4 W/m2
17:36 17.5 °C 13.1 °C 1011.1 hPa Calm   8.7 km/h 75% 0.0 mm 2 W/m2
17:41 17.4 °C 12.9 °C 1011.4 hPa WNW 2.6 km/h 9.7 km/h 75% 0.0 mm 1 W/m2
17:46 17.2 °C 12.3 °C 1011.4 hPa West 3.5 km/h 13.4 km/h 73% 0.0 mm 0 W/m2
17:51 17.2 °C 11.3 °C 1011.4 hPa WNW 7.2 km/h 17.2 km/h 68% 0.0 mm 0 W/m2
17:56 17.2 °C 10.6 °C 1011.7 hPa WNW 3.5 km/h 17.2 km/h 65% 0.0 mm 0 W/m2
18:01 17.2 °C 10.3 °C 1011.7 hPa WNW 5.0 km/h 17.2 km/h 64% 0.0 mm 0 W/m2
18:06 17.0 °C 10.4 °C 1012.1 hPa WNW 7.2 km/h 14.8 km/h 65% 0.0 mm 0 W/m2
18:11 16.8 °C 11.1 °C 1012.1 hPa WNW 8.7 km/h 19.5 km/h 69% 0.0 mm 0 W/m2
18:16 16.5 °C 11.4 °C 1011.7 hPa NW 5.0 km/h 19.5 km/h 72% 0.0 mm 0 W/m2
18:21 16.3 °C 11.4 °C 1012.1 hPa NNW 6.1 km/h 14.8 km/h 73% 0.0 mm 0 W/m2
18:26 16.0 °C 11.8 °C 1012.1 hPa North 3.5 km/h 13.4 km/h 76% 0.3 mm 0 W/m2
18:31 15.6 °C 12.0 °C 1011.7 hPa Calm   13.4 km/h 79% 0.3 mm 0 W/m2
18:36 15.4 °C 12.6 °C 1011.4 hPa NE 1.1 km/h 7.2 km/h 83% 0.3 mm 0 W/m2
18:41 15.3 °C 12.6 °C 1011.4 hPa Calm   8.7 km/h 84% 0.3 mm 0 W/m2
18:46 15.2 °C 12.5 °C 1011.7 hPa Calm   8.7 km/h 84% 0.3 mm 0 W/m2
18:51 15.1 °C 12.6 °C 1012.1 hPa NNW 3.5 km/h 12.2 km/h 85% 0.3 mm 0 W/m2
18:56 15.0 °C 12.5 °C 1011.7 hPa NNW 2.6 km/h 12.2 km/h 85% 0.3 mm 0 W/m2
19:01 15.0 °C 12.7 °C 1012.1 hPa NNW 1.1 km/h 9.7 km/h 86% 0.3 mm 0 W/m2
19:06 14.9 °C 12.8 °C 1011.7 hPa NNW 3.5 km/h 8.7 km/h 87% 0.3 mm 0 W/m2
19:11 14.8 °C 12.7 °C 1012.1 hPa North 6.1 km/h 8.7 km/h 87% 0.3 mm 0 W/m2
19:16 14.8 °C 12.7 °C 1012.1 hPa Calm   8.7 km/h 87% 0.3 mm 0 W/m2
19:21 14.8 °C 12.8 °C 1012.1 hPa Calm   8.7 km/h 88% 0.3 mm 0 W/m2
19:26 14.8 °C 12.8 °C 1012.1 hPa Calm   6.1 km/h 88% 0.0 mm 0 W/m2
19:31 14.7 °C 12.6 °C 1012.1 hPa Calm     87% 0.0 mm 0 W/m2
19:36 14.7 °C 12.7 °C 1012.1 hPa Calm     88% 0.0 mm 0 W/m2
19:41 14.7 °C 12.7 °C 1012.1 hPa Calm   3.5 km/h 88% 0.0 mm 0 W/m2
19:46 14.6 °C 12.8 °C 1012.1 hPa North 1.1 km/h 3.5 km/h 89% 0.3 mm 0 W/m2
19:51 14.6 °C 13.0 °C 1012.1 hPa NW 5.0 km/h 7.2 km/h 90% 0.3 mm 0 W/m2
19:56 14.5 °C 13.1 °C 1012.1 hPa WNW 5.0 km/h 7.2 km/h 91% 0.3 mm 0 W/m2
20:01 14.3 °C 13.0 °C 1012.4 hPa NW 7.2 km/h 11.1 km/h 92% 0.3 mm 0 W/m2
20:06 14.2 °C 13.3 °C 1012.4 hPa NNW 6.1 km/h 14.8 km/h 94% 0.3 mm 0 W/m2
20:11 14.2 °C 13.3 °C 1012.4 hPa NNW 3.5 km/h 14.8 km/h 94% 0.3 mm 0 W/m2
20:16 14.2 °C 13.4 °C 1012.4 hPa North 3.5 km/h 9.7 km/h 95% 0.5 mm 0 W/m2
20:21 14.2 °C 13.4 °C 1012.8 hPa North 6.1 km/h 8.7 km/h 95% 0.5 mm 0 W/m2
20:26 14.1 °C 13.3 °C 1012.8 hPa North 5.0 km/h 11.1 km/h 95% 1.0 mm 0 W/m2
20:31 14.1 °C 13.3 °C 1012.8 hPa North 2.6 km/h 11.1 km/h 95% 1.0 mm 0 W/m2
20:36 14.1 °C 13.5 °C 1012.8 hPa NNE 6.1 km/h 9.7 km/h 96% 1.5 mm 0 W/m2
20:41 14.1 °C 13.5 °C 1012.4 hPa NE 8.7 km/h 14.8 km/h 96% 1.8 mm 0 W/m2
20:46 14.0 °C 13.6 °C 1012.1 hPa ENE 6.1 km/h 14.8 km/h 97% 1.5 mm 0 W/m2
20:51 14.1 °C 13.6 °C 1012.1 hPa NE 3.5 km/h 14.8 km/h 97% 1.5 mm 0 W/m2
20:56 14.1 °C 13.6 °C 1012.4 hPa NE 1.1 km/h 13.4 km/h 97% 1.5 mm 0 W/m2
21:01 14.1 °C 13.6 °C 1012.4 hPa NNW 6.1 km/h 12.2 km/h 97% 1.5 mm 0 W/m2
21:06 14.0 °C 13.6 °C 1012.1 hPa NW 3.5 km/h 12.2 km/h 97% 1.5 mm 0 W/m2
21:11 14.0 °C 13.6 °C 1012.4 hPa Calm   9.7 km/h 97% 1.5 mm 0 W/m2
21:16 14.0 °C 13.6 °C 1012.4 hPa NNW 6.1 km/h 14.8 km/h 97% 1.3 mm 0 W/m2
21:21 14.1 °C 13.6 °C 1012.4 hPa NW 7.2 km/h 14.8 km/h 97% 1.3 mm 0 W/m2
21:26 14.1 °C 13.6 °C 1012.4 hPa NW 3.5 km/h 13.4 km/h 97% 1.0 mm 0 W/m2
21:31 14.1 °C 13.6 °C 1012.4 hPa NNW 1.1 km/h 11.1 km/h 97% 1.0 mm 0 W/m2
21:36 14.1 °C 13.6 °C 1012.4 hPa Calm   7.2 km/h 97% 0.3 mm 0 W/m2
21:41 14.0 °C 13.7 °C 1012.4 hPa Calm   6.1 km/h 98% 0.0 mm 0 W/m2
21:46 14.0 °C 13.7 °C 1012.4 hPa Calm   6.1 km/h 98% 0.0 mm 0 W/m2
21:51 14.0 °C 13.7 °C 1012.4 hPa North 5.0 km/h 7.2 km/h 98% 0.0 mm 0 W/m2
21:56 14.0 °C 13.7 °C 1012.4 hPa North 6.1 km/h 7.2 km/h 98% 0.0 mm 0 W/m2
22:01 14.0 °C 13.7 °C 1012.4 hPa NNW 3.5 km/h 7.2 km/h 98% 0.0 mm 0 W/m2
22:06 14.0 °C 13.7 °C 1012.4 hPa Calm   7.2 km/h 98% 0.3 mm 0 W/m2
22:11 14.0 °C 13.8 °C 1012.1 hPa Calm   5.0 km/h 99% 0.3 mm 0 W/m2
22:16 13.9 °C 13.8 °C 1012.1 hPa Calm   5.0 km/h 99% 0.3 mm 0 W/m2
22:21 13.9 °C 13.8 °C 1012.1 hPa Calm     99% 0.3 mm 0 W/m2
22:26 13.9 °C 13.8 °C 1012.4 hPa NNW 5.0 km/h 7.2 km/h 99% 0.3 mm 0 W/m2
22:31 13.9 °C 13.8 °C 1012.4 hPa NNW 3.5 km/h 8.7 km/h 99% 0.3 mm 0 W/m2
22:36 14.0 °C 13.8 °C 1012.4 hPa NNW 1.1 km/h 8.7 km/h 99% 0.3 mm 0 W/m2
22:41 13.9 °C 13.8 °C 1012.1 hPa Calm   7.2 km/h 99% 0.3 mm 0 W/m2
22:46 13.9 °C 13.8 °C 1012.1 hPa NW 3.5 km/h 6.1 km/h 99% 0.3 mm 0 W/m2
22:51 13.9 °C 13.8 °C 1012.1 hPa Calm   6.1 km/h 99% 0.3 mm 0 W/m2
22:56 13.9 °C 13.8 °C 1012.1 hPa Calm   6.1 km/h 99% 0.3 mm 0 W/m2
23:01 13.9 °C 13.8 °C 1012.1 hPa NW 6.1 km/h 8.7 km/h 99% 0.3 mm 0 W/m2
23:06 14.0 °C 13.8 °C 1012.1 hPa NW 2.6 km/h 8.7 km/h 99% 0.0 mm 0 W/m2
23:11 14.0 °C 13.8 °C 1012.1 hPa Calm   8.7 km/h 99% 0.0 mm 0 W/m2
23:16 14.0 °C 13.8 °C 1012.1 hPa Calm   6.1 km/h 99% 0.0 mm 0 W/m2
23:21 14.0 °C 13.8 °C 1012.1 hPa Calm     99% 0.0 mm 0 W/m2
23:26 13.9 °C 13.8 °C 1012.1 hPa Calm     99% 0.0 mm 0 W/m2
23:31 13.9 °C 13.8 °C 1012.1 hPa NW 2.6 km/h 6.1 km/h 99% 0.0 mm 0 W/m2
23:36 14.0 °C 13.8 °C 1012.1 hPa Calm   6.1 km/h 99% 0.0 mm 0 W/m2
23:41 14.0 °C 13.8 °C 1012.1 hPa NW 6.1 km/h 8.7 km/h 99% 0.0 mm 0 W/m2
23:46 14.0 °C 13.8 °C 1012.1 hPa NNW 5.0 km/h 9.7 km/h 99% 0.0 mm 0 W/m2
23:51 14.0 °C 13.8 °C 1012.1 hPa NNW 5.0 km/h 9.7 km/h 99% 0.0 mm 0 W/m2
23:56 14.0 °C 13.8 °C 1012.1 hPa NNW 6.1 km/h 8.7 km/h 99% 0.0 mm 0 W/m2
Northern Hawkes Bay. New Zealand Historic Data
Compliments of Weather Underground - 2 mb